Time;durP1;ratioP1;P1;durP2;ratioP2;P2;SDS_P1;SDS_P2;PMS_P1;PMS_P2;Temp;Humidity;BMP_temperature;BMP_pressure;BME280_temperature;BME280_humidity;BME280_pressure;Samples;Min_cycle;Max_cycle;Signal;HPM_P1;HPM_P2
2022/04/12 00:02:28;;;;;;;;;;;;;;;5.23;70.68;100468.69;5032314;28;20397;-67
2022/04/12 00:05:31;;;;;;;6.82;2.33;;;;;;;5.17;71.10;100472.34;5031584;28;20379;-67
2022/04/12 00:08:34;;;;;;;6.80;2.05;;;;;;;5.16;71.43;100467.19;5031617;28;20083;-67
2022/04/12 00:11:37;;;;;;;5.60;2.40;;;;;;;5.26;71.52;100469.44;5034022;28;20044;-67
2022/04/12 00:14:41;;;;;;;5.68;2.28;;;;;;;5.25;71.18;100462.56;5023302;28;20416;-67
2022/04/12 00:21:06;;;;;;;6.13;2.78;;;;;;;5.18;71.66;100463.66;5035404;28;20418;-67
2022/04/12 00:24:09;;;;;;;5.65;2.13;;;;;;;5.10;72.19;100468.22;5035295;28;20044;-67
2022/04/12 00:27:12;;;;;;;5.63;2.10;;;;;;;5.17;71.64;100451.63;5035308;28;20048;-67
2022/04/12 00:30:16;;;;;;;;;;;;;;;5.28;71.68;100459.03;5035927;28;20048;-67
2022/04/12 00:33:20;;;;;;;7.65;2.28;;;;;;;5.25;71.98;100456.53;5035244;28;20012;-67
2022/04/12 00:36:23;;;;;;;;;;;;;;;5.17;72.17;100458.50;5023370;28;20040;-67
2022/04/12 00:39:26;;;;;;;4.63;2.05;;;;;;;5.18;72.38;100457.63;5035297;28;20330;-67
2022/04/12 00:42:29;;;;;;;5.45;1.80;;;;;;;5.18;72.46;100461.06;5035182;28;20052;-67
2022/04/12 00:45:33;;;;;;;4.85;2.35;;;;;;;5.28;71.85;100452.09;5035118;28;20096;-67
2022/04/12 00:48:36;;;;;;;4.47;2.25;;;;;;;5.17;72.19;100455.91;5035229;28;20060;-67
2022/04/12 00:51:39;;;;;;;3.03;2.05;;;;;;;5.08;72.57;100465.69;5034826;28;20690;-67
2022/04/12 00:54:44;;;;;;;;;;;;;;;5.26;71.82;100459.06;5034921;28;20052;-67
2022/04/12 00:57:48;;;;;;;5.53;1.88;;;;;;;5.33;71.70;100464.94;5034825;28;20035;-67
2022/04/12 01:00:51;;;;;;;7.25;2.40;;;;;;;5.43;70.59;100461.16;5034754;28;20411;-67
2022/04/12 01:03:54;;;;;;;6.28;2.22;;;;;;;5.26;71.50;100464.25;5033904;28;20056;-67
2022/04/12 01:06:57;;;;;;;;;;;;;;;5.33;71.20;100459.75;5035121;28;20515;-67
2022/04/12 01:10:01;;;;;;;5.20;2.63;;;;;;;5.23;71.20;100454.00;5034299;28;20298;-67
2022/04/12 01:13:04;;;;;;;;;;;;;;;5.06;71.80;100451.09;5034928;28;20048;-67
2022/04/12 01:16:08;;;;;;;6.05;2.03;;;;;;;5.04;71.91;100445.09;5034557;28;19959;-67
2022/04/12 01:19:12;;;;;;;;;;;;;;;5.02;72.42;100439.13;5034646;28;20140;-66
2022/04/12 01:22:21;;;;;;;5.82;2.55;;;;;;;4.93;72.22;100434.22;5032646;28;19935;-67
2022/04/12 01:25:25;;;;;;;4.35;2.10;;;;;;;4.84;72.76;100436.19;5033941;28;20415;-67
2022/04/12 01:28:28;;;;;;;3.20;1.80;;;;;;;4.85;72.27;100437.91;5034289;28;20048;-67
2022/04/12 01:31:31;;;;;;;4.10;2.00;;;;;;;4.88;72.43;100440.41;5034249;28;20040;-67
2022/04/12 01:34:35;;;;;;;;;;;;;;;4.74;72.69;100437.34;5034390;28;20049;-67
2022/04/12 01:37:38;;;;;;;5.13;1.88;;;;;;;4.73;72.84;100437.41;5034158;28;19920;-67
2022/04/12 01:40:41;;;;;;;4.55;2.22;;;;;;;4.70;72.90;100438.34;5033893;28;20090;-67
2022/04/12 01:43:45;;;;;;;6.40;2.33;;;;;;;4.69;72.96;100447.00;5034278;28;20051;-67
2022/04/12 01:46:48;;;;;;;;;;;;;;;4.83;72.66;100433.66;5034442;28;20044;-67
2022/04/12 01:49:51;;;;;;;4.25;2.13;;;;;;;4.80;72.66;100436.31;5033707;28;20436;-67
2022/04/12 01:52:55;;;;;;;4.93;2.20;;;;;;;4.77;72.55;100450.22;5033552;28;20092;-67
2022/04/12 01:55:58;;;;;;;;;;;;;;;4.77;72.63;100444.19;5034133;28;20057;-66
2022/04/12 01:59:04;;;;;;;4.20;2.08;;;;;;;4.75;72.55;100444.22;5033978;28;19920;-67
2022/04/12 02:02:07;;;;;;;7.72;2.42;;;;;;;4.83;72.33;100434.50;5033788;28;20104;-66
2022/04/12 02:05:10;;;;;;;8.98;2.40;;;;;;;4.79;72.63;100427.72;5033555;28;20048;-67
2022/04/12 02:08:13;;;;;;;;;;;;;;;4.81;72.72;100428.50;5034022;28;20052;-67
2022/04/12 02:11:17;;;;;;;5.32;2.13;;;;;;;4.89;72.12;100423.94;5033459;28;19924;-67
2022/04/12 02:14:21;;;;;;;4.75;2.15;;;;;;;4.75;72.24;100420.91;5021164;28;20051;-67
2022/04/12 02:17:25;;;;;;;4.70;2.13;;;;;;;4.50;72.93;100420.81;5033222;28;20044;-67
2022/04/12 02:20:28;;;;;;;5.60;2.97;;;;;;;4.48;73.40;100425.16;5021212;28;20079;-67
2022/04/12 02:23:31;;;;;;;4.50;2.10;;;;;;;4.38;73.91;100431.50;5033133;28;20087;-67
2022/04/12 02:26:35;;;;;;;7.70;2.47;;;;;;;4.30;73.97;100428.28;5033201;28;20052;-67
2022/04/12 02:29:38;;;;;;;;;;;;;;;4.42;73.86;100426.19;5033543;28;20412;-67
2022/04/12 02:32:41;;;;;;;4.78;2.20;;;;;;;4.39;73.52;100421.09;5032911;28;19928;-67
2022/04/12 02:35:45;;;;;;;5.55;2.30;;;;;;;4.35;73.65;100422.09;5032821;28;20044;-67
2022/04/12 02:38:48;;;;;;;6.43;2.97;;;;;;;4.38;73.43;100422.00;5032886;28;20048;-67
2022/04/12 02:41:52;;;;;;;4.75;2.63;;;;;;;4.42;73.46;100423.59;5032942;28;20044;-66
2022/04/12 02:44:55;;;;;;;4.72;2.65;;;;;;;4.29;73.88;100431.75;5032953;28;20132;-67
2022/04/12 02:47:58;;;;;;;3.47;2.00;;;;;;;4.28;73.95;100425.75;5032942;28;20404;-67
2022/04/12 02:51:01;;;;;;;6.72;2.60;;;;;;;4.31;73.83;100428.25;5032615;28;20072;-67
2022/04/12 02:54:05;;;;;;;;;;;;;;;4.21;74.51;100424.19;5032896;28;20436;-67
2022/04/12 02:57:08;;;;;;;4.07;2.20;;;;;;;4.53;73.58;100425.03;5032687;28;19999;-66
2022/04/12 03:00:11;;;;;;;4.72;2.53;;;;;;;4.43;73.45;100409.78;5032406;28;20136;-67
2022/04/12 03:03:14;;;;;;;6.18;2.65;;;;;;;4.26;74.44;100414.56;5032458;28;20182;-67
2022/04/12 03:06:18;;;;;;;;;;;;;;;4.45;74.07;100411.47;5032781;28;20049;-67
2022/04/12 03:09:22;;;;;;;5.10;2.30;;;;;;;4.27;74.08;100416.25;5032216;28;19928;-67
2022/04/12 03:12:25;;;;;;;7.18;2.55;;;;;;;4.30;74.06;100413.59;5032504;28;20176;-67
2022/04/12 03:15:29;;;;;;;3.97;2.20;;;;;;;4.19;74.76;100415.63;5032296;28;20044;-67
2022/04/12 03:18:32;;;;;;;4.22;2.28;;;;;;;4.27;74.25;100413.66;5032120;28;20053;-66
2022/04/12 03:21:36;;;;;;;;;;;;;;;4.16;74.74;100410.53;5032606;28;20041;-67
2022/04/12 03:24:39;;;;;;;6.68;2.50;;;;;;;4.22;74.29;100410.38;5032431;28;19920;-67
2022/04/12 03:27:42;;;;;;;4.93;3.30;;;;;;;4.04;75.11;100413.47;5032380;28;20427;-67
2022/04/12 03:30:45;;;;;;;;;;;;;;;4.13;75.06;100415.81;5032712;28;20052;-67
2022/04/12 03:33:48;;;;;;;5.35;2.50;;;;;;;4.26;74.68;100421.50;5032018;28;19920;-67
2022/04/12 03:36:51;;;;;;;4.47;2.25;;;;;;;4.53;73.36;100417.25;5032150;28;20095;-67
2022/04/12 03:39:55;;;;;;;8.00;2.45;;;;;;;4.33;73.56;100410.91;5032207;28;20584;-66
2022/04/12 03:43:04;;;;;;;3.53;2.03;;;;;;;4.11;74.42;100409.81;5032227;28;20044;-67
2022/04/12 03:46:07;;;;;;;4.55;2.42;;;;;;;4.13;74.54;100410.63;5021738;28;20060;-67
2022/04/12 03:49:10;;;;;;;3.65;2.45;;;;;;;4.36;74.13;100403.06;5036017;28;20072;-67
2022/04/12 03:52:14;;;;;;;4.95;2.42;;;;;;;4.43;73.85;100403.72;5035989;28;20052;-66
2022/04/12 03:55:30;;;;;;;4.53;2.58;;;;;;;4.28;74.58;100404.19;5036429;28;20098;-66
2022/04/12 03:58:37;;;;;;;4.65;2.30;;;;;;;4.26;74.74;100403.38;5036166;28;20047;-67
2022/04/12 04:01:40;;;;;;;4.75;2.60;;;;;;;4.21;75.03;100424.19;5035185;28;20048;-66
2022/04/12 04:04:44;;;;;;;5.28;2.22;;;;;;;4.17;75.15;100417.41;5036039;28;20555;-67
2022/04/12 04:07:47;;;;;;;9.38;3.30;;;;;;;4.19;74.92;100406.13;5036028;28;20484;-66
2022/04/12 04:10:51;;;;;;;5.70;2.67;;;;;;;4.06;75.50;100409.09;5035445;28;20136;-67
2022/04/12 04:13:55;;;;;;;4.30;2.70;;;;;;;4.03;75.46;100414.38;5035796;28;20083;-66
2022/04/12 04:17:02;;;;;;;4.90;2.53;;;;;;;4.18;75.09;100417.38;5035368;28;20523;-66
2022/04/12 04:20:06;;;;;;;5.80;2.42;;;;;;;4.29;74.39;100419.66;5035484;28;20053;-67
2022/04/12 04:23:10;;;;;;;5.43;2.90;;;;;;;4.12;75.00;100421.88;5035756;28;20118;-67
2022/04/12 04:26:13;;;;;;;3.85;2.60;;;;;;;4.05;75.34;100422.91;5035290;28;20055;-66
2022/04/12 04:29:16;;;;;;;5.60;2.70;;;;;;;3.88;76.13;100406.13;5035271;28;20056;-67
2022/04/12 04:32:20;;;;;;;5.47;2.95;;;;;;;3.95;75.78;100419.72;5034909;28;20068;-67
2022/04/12 04:35:23;;;;;;;5.70;2.05;;;;;;;3.93;75.35;100419.78;5035029;28;20459;-67
2022/04/12 04:38:26;;;;;;;4.50;2.75;;;;;;;4.17;74.59;100423.44;5030266;28;20056;-67
2022/04/12 04:41:30;;;;;;;6.22;3.13;;;;;;;4.08;74.85;100417.66;5030447;28;20068;-67
2022/04/12 04:44:33;;;;;;;6.13;2.83;;;;;;;4.25;74.27;100419.81;5030340;28;20111;-67
2022/04/12 04:47:51;;;;;;;4.40;2.67;;;;;;;4.14;74.59;100418.34;5028819;28;20099;-67
2022/04/12 04:50:54;;;;;;;5.05;2.70;;;;;;;3.99;74.82;100423.94;5030321;28;20132;-67
2022/04/12 04:53:58;;;;;;;6.43;2.42;;;;;;;3.90;75.39;100409.50;5030009;28;20567;-67
2022/04/12 04:57:02;;;;;;;6.97;2.90;;;;;;;3.81;76.04;100411.50;5029349;28;20040;-67
2022/04/12 05:00:07;;;;;;;5.53;2.85;;;;;;;3.82;76.07;100414.03;5029253;28;20052;-67
2022/04/12 05:03:11;;;;;;;4.53;2.83;;;;;;;4.01;75.86;100416.13;5018479;28;20072;-67
2022/04/12 05:06:14;;;;;;;4.90;2.80;;;;;;;4.15;75.25;100419.22;5030977;28;20601;-67
2022/04/12 05:09:18;;;;;;;3.10;2.05;;;;;;;4.01;75.11;100421.31;5030084;28;20103;-67
2022/04/12 05:12:21;;;;;;;4.57;2.60;;;;;;;4.21;74.72;100421.59;5029521;28;20048;-67
2022/04/12 05:15:27;;;;;;;4.43;2.50;;;;;;;4.39;74.04;100418.50;5028956;28;20084;-67
2022/04/12 05:18:30;;;;;;;6.68;2.88;;;;;;;4.15;74.96;100429.56;5029333;28;20447;-67
2022/04/12 05:21:34;;;;;;;4.60;2.65;;;;;;;4.03;75.47;100425.56;5030969;28;20106;-66
2022/04/12 05:24:37;;;;;;;4.57;2.70;;;;;;;4.23;75.30;100431.94;5030749;28;20089;-67
2022/04/12 05:27:43;;;;;;;4.38;2.35;;;;;;;4.32;74.95;100427.34;5009910;28;20583;-67
2022/04/12 05:30:47;;;;;;;4.97;2.38;;;;;;;4.38;74.39;100429.75;5016982;28;20131;-67
2022/04/12 05:33:52;;;;;;;5.63;3.67;;;;;;;4.27;75.08;100433.53;5023986;28;20115;-67
2022/04/12 05:36:56;;;;;;;8.68;4.65;;;;;;;4.25;75.14;100443.09;5013337;28;20103;-67
2022/04/12 05:40:04;;;;;;;5.75;2.75;;;;;;;4.33;74.85;100441.13;5014024;28;20408;-67
2022/04/12 05:43:08;;;;;;;6.75;2.78;;;;;;;4.26;75.63;100443.03;5012026;28;20052;-67
2022/04/12 05:46:11;;;;;;;5.55;2.47;;;;;;;4.46;74.38;100439.03;5013931;28;20052;-67
2022/04/12 05:49:14;;;;;;;;;;;;;;;4.42;74.89;100438.28;5014575;28;20564;-67
2022/04/12 05:52:18;;;;;;;4.80;2.83;;;;;;;4.41;74.72;100454.72;5014043;28;20089;-67
2022/04/12 05:55:22;;;;;;;6.93;2.58;;;;;;;4.38;74.41;100453.06;5013689;28;20092;-67
2022/04/12 05:58:26;;;;;;;5.03;2.80;;;;;;;4.36;74.99;100449.66;5013740;28;20589;-67
2022/04/12 06:01:30;;;;;;;;;;;;;;;4.67;73.70;100443.63;5014239;28;20512;-67
2022/04/12 06:04:33;;;;;;;4.72;2.30;;;;;;;4.67;73.97;100441.03;5013735;28;19920;-67
2022/04/12 06:07:37;;;;;;;4.53;2.35;;;;;;;4.50;74.72;100435.47;5012784;28;20092;-67
2022/04/12 06:10:41;;;;;;;5.57;2.70;;;;;;;4.53;74.55;100445.72;5013390;28;20065;-67
2022/04/12 06:13:44;;;;;;;4.50;2.22;;;;;;;4.81;73.65;100438.84;5013384;28;20057;-67
2022/04/12 06:16:48;;;;;;;4.63;2.85;;;;;;;5.00;72.70;100436.56;5013186;28;20045;-67
2022/04/12 06:19:51;;;;;;;;;;;;;;;4.89;72.99;100444.66;5013170;28;20233;-67
2022/04/12 06:22:54;;;;;;;7.07;2.70;;;;;;;5.02;73.34;100436.53;5013377;28;19920;-67
2022/04/12 06:25:58;;;;;;;6.03;2.45;;;;;;;5.08;72.85;100444.13;5013264;28;20184;-67
2022/04/12 06:29:01;;;;;;;6.03;3.72;;;;;;;5.20;72.35;100442.88;5013594;28;20040;-67
2022/04/12 06:32:05;;;;;;;9.60;5.13;;;;;;;5.33;72.48;100439.84;5013186;28;20045;-67
2022/04/12 06:35:10;;;;;;;6.45;3.67;;;;;;;5.46;71.99;100434.28;5013295;28;20041;-67
2022/04/12 06:38:13;;;;;;;8.73;3.08;;;;;;;5.59;71.66;100428.63;5013144;28;20065;-67
2022/04/12 06:41:16;;;;;;;4.10;2.55;;;;;;;5.74;71.17;100432.47;5012973;28;20052;-67
2022/04/12 06:44:20;;;;;;;5.38;2.75;;;;;;;6.00;70.24;100431.59;5013042;28;20128;-67
2022/04/12 06:47:23;;;;;;;4.32;2.72;;;;;;;6.05;70.08;100434.88;5012997;28;20045;-67
2022/04/12 06:50:28;;;;;;;5.22;2.60;;;;;;;6.10;70.45;100432.13;5013270;28;20140;-66
2022/04/12 06:53:31;;;;;;;5.18;3.33;;;;;;;6.11;69.96;100436.41;5012842;28;20493;-67
2022/04/12 06:56:35;;;;;;;5.88;2.95;;;;;;;6.29;69.11;100434.91;5012824;28;20424;-67
2022/04/12 06:59:39;;;;;;;6.30;3.13;;;;;;;6.41;69.36;100429.25;5012715;28;20048;-67
2022/04/12 07:02:43;;;;;;;8.05;4.05;;;;;;;6.46;69.42;100423.91;5012954;28;20367;-67
2022/04/12 07:05:49;;;;;;;12.40;7.28;;;;;;;6.55;69.56;100428.75;5013052;28;20057;-67
2022/04/12 07:08:52;;;;;;;11.40;6.85;;;;;;;6.69;69.08;100421.28;5011719;28;20524;-67
2022/04/12 07:11:57;;;;;;;12.48;5.85;;;;;;;6.75;68.52;100420.22;5012383;28;20084;-67
2022/04/12 07:15:01;;;;;;;10.20;6.75;;;;;;;6.74;68.93;100429.75;5012612;28;20064;-67
2022/04/12 07:18:04;;;;;;;10.38;6.72;;;;;;;7.01;68.54;100424.41;5012945;28;20551;-68
2022/04/12 07:21:07;;;;;;;13.73;7.05;;;;;;;7.17;67.23;100433.28;5011729;28;20178;-67
2022/04/12 07:24:10;;;;;;;;;;;;;;;7.19;66.93;100436.69;5012968;28;20052;-67
2022/04/12 07:27:14;;;;;;;9.30;5.00;;;;;;;7.37;66.20;100431.63;5011766;28;19921;-67
2022/04/12 07:30:18;;;;;;;;;;;;;;;7.60;65.34;100435.94;5021407;28;20059;-67
2022/04/12 07:33:21;;;;;;;7.10;4.40;;;;;;;7.79;64.24;100433.41;5032324;28;19920;-67
2022/04/12 07:36:24;;;;;;;7.45;4.80;;;;;;;7.96;64.46;100427.47;5031231;28;20079;-67
2022/04/12 07:39:28;;;;;;;6.60;4.43;;;;;;;8.22;64.25;100426.34;5032544;28;20595;-67
2022/04/12 07:42:31;;;;;;;6.35;3.92;;;;;;;8.30;63.13;100419.88;5032251;28;20416;-67
2022/04/12 07:45:34;;;;;;;7.82;3.70;;;;;;;8.40;62.46;100425.56;5032090;28;20055;-67
2022/04/12 07:48:39;;;;;;;;;;;;;;;8.54;62.39;100412.72;5032443;28;20102;-67
2022/04/12 07:51:43;;;;;;;8.50;4.43;;;;;;;8.56;61.99;100408.31;5031868;28;20276;-67
2022/04/12 07:54:47;;;;;;;8.82;4.45;;;;;;;8.74;62.25;100410.97;5031808;28;20119;-67
2022/04/12 07:57:51;;;;;;;8.90;3.88;;;;;;;8.83;61.86;100414.00;5031949;28;20413;-67
2022/04/12 08:00:54;;;;;;;9.75;5.13;;;;;;;8.87;61.50;100406.91;5032006;28;20114;-67
2022/04/12 08:03:57;;;;;;;;;;;;;;;8.84;60.81;100399.22;5032457;28;20451;-67
2022/04/12 08:07:01;;;;;;;7.65;4.68;;;;;;;8.95;60.93;100401.31;5031877;28;19976;-67
2022/04/12 08:10:04;;;;;;;;;;;;;;;9.03;61.26;100404.38;5031916;28;20657;-67
2022/04/12 08:13:07;;;;;;;9.48;4.40;;;;;;;9.14;60.96;100398.66;5032273;28;19956;-67
2022/04/12 08:16:10;;;;;;;;;;;;;;;9.25;60.64;100401.59;5031663;28;20053;-67
2022/04/12 08:19:13;;;;;;;10.00;5.43;;;;;;;9.38;60.16;100397.47;5031867;28;20374;-67
2022/04/12 08:22:17;;;;;;;;;;;;;;;9.57;59.84;100396.53;5032205;28;20113;-67
2022/04/12 08:25:20;;;;;;;6.57;4.28;;;;;;;9.70;60.04;100387.16;5031651;28;19920;-67
2022/04/12 08:28:23;;;;;;;6.90;4.20;;;;;;;9.78;58.96;100385.03;5032107;28;20059;-67
2022/04/12 08:31:27;;;;;;;6.82;4.43;;;;;;;9.84;57.71;100381.25;5031963;28;20132;-67
2022/04/12 08:34:30;;;;;;;7.00;4.10;;;;;;;10.02;58.21;100381.16;5035257;28;20455;-67
2022/04/12 08:37:34;;;;;;;;;;;;;;;10.14;58.29;100379.63;5035470;28;20048;-68
2022/04/12 08:40:40;;;;;;;6.35;4.05;;;;;;;10.30;58.45;100366.63;5034971;28;19920;-67
2022/04/12 08:43:52;;;;;;;9.65;4.50;;;;;;;10.33;58.47;100363.03;5035331;28;20056;-67
2022/04/12 08:46:57;;;;;;;7.90;4.80;;;;;;;10.50;58.56;100356.88;5022988;28;20060;-67
2022/04/12 08:50:01;;;;;;;10.15;4.22;;;;;;;10.57;59.03;100353.03;5034967;28;20040;-68
2022/04/12 08:53:06;;;;;;;8.95;4.57;;;;;;;10.85;57.75;100347.94;5035279;28;20527;-67
2022/04/12 08:56:09;;;;;;;7.65;4.35;;;;;;;11.05;57.83;100348.59;5034814;28;20115;-68
2022/04/12 08:59:12;;;;;;;11.10;4.57;;;;;;;11.16;58.24;100343.56;5034744;28;20099;-67
2022/04/12 09:02:16;;;;;;;7.95;4.60;;;;;;;11.26;57.02;100336.03;5034781;28;20129;-67
2022/04/12 09:05:21;;;;;;;5.32;3.75;;;;;;;11.46;57.46;100327.88;5034764;28;20052;-67
2022/04/12 09:08:28;;;;;;;9.48;4.38;;;;;;;11.56;57.27;100323.75;5034632;28;20052;-67
2022/04/12 09:11:33;;;;;;;9.55;4.80;;;;;;;11.61;57.20;100328.72;5034718;28;20170;-67
2022/04/12 09:14:56;;;;;;;7.95;5.22;;;;;;;11.69;57.43;100323.88;5034619;28;20125;-67
2022/04/12 09:17:59;;;;;;;9.98;4.30;;;;;;;11.98;57.85;100321.28;5022111;28;20048;-67
2022/04/12 09:21:31;;;;;;;;;;;;;;;11.93;57.19;100321.56;5033953;28;20040;-67
2022/04/12 09:24:37;;;;;;;8.15;4.00;;;;;;;11.94;57.53;100322.44;5033124;28;19996;-67
2022/04/12 09:27:44;;;;;;;6.72;4.38;;;;;;;12.00;57.86;100311.56;5033682;28;20071;-67
2022/04/12 09:30:47;;;;;;;6.22;3.83;;;;;;;12.23;55.97;100308.34;5034269;28;20053;-67
2022/04/12 09:33:52;;;;;;;7.28;4.70;;;;;;;12.39;55.46;100299.53;5034197;28;20096;-67
2022/04/12 09:36:55;;;;;;;9.77;4.15;;;;;;;12.44;56.24;100287.78;5033344;28;20164;-67
2022/04/12 09:39:59;;;;;;;10.18;4.05;;;;;;;12.56;57.19;100283.53;5028679;28;20043;-67
2022/04/12 09:43:05;;;;;;;6.38;3.85;;;;;;;12.67;56.21;100281.09;5029497;28;20420;-67
2022/04/12 09:46:13;;;;;;;7.72;4.03;;;;;;;12.94;56.10;100283.69;5010086;28;20099;-67
2022/04/12 09:49:17;;;;;;;7.88;4.45;;;;;;;13.17;54.25;100274.25;5011661;28;20048;-67
2022/04/12 09:52:20;;;;;;;10.27;4.10;;;;;;;13.09;54.51;100273.97;5028933;28;20504;-67
2022/04/12 09:55:44;;;;;;;11.23;4.38;;;;;;;13.18;54.61;100270.72;5029109;28;20404;-68
2022/04/12 09:58:54;;;;;;;8.35;3.78;;;;;;;13.57;53.42;100261.09;5029848;28;20056;-67
2022/04/12 10:01:57;;;;;;;9.57;4.05;;;;;;;13.65;54.12;100258.75;5029384;28;20041;-67
2022/04/12 10:05:03;;;;;;;5.20;3.40;;;;;;;13.81;52.71;100247.19;5029361;28;20059;-67
2022/04/12 10:08:11;;;;;;;5.95;3.08;;;;;;;14.31;53.28;100234.88;5029122;28;20547;-68
2022/04/12 10:11:15;;;;;;;6.13;2.80;;;;;;;14.32;50.69;100233.91;5028140;28;20076;-68
2022/04/12 10:14:19;;;;;;;6.20;2.90;;;;;;;14.37;51.53;100218.66;5028873;28;20052;-67
2022/04/12 10:17:23;;;;;;;5.50;3.10;;;;;;;14.69;50.46;100218.94;5028249;28;20052;-68
2022/04/12 10:20:27;;;;;;;5.82;3.17;;;;;;;15.07;49.81;100209.97;5028228;28;20048;-67
2022/04/12 10:23:32;;;;;;;5.78;3.00;;;;;;;15.41;46.82;100210.84;5016527;28;20045;-67
2022/04/12 10:26:35;;;;;;;6.40;2.60;;;;;;;15.58;45.17;100204.25;5028404;28;20044;-67
2022/04/12 10:29:38;;;;;;;4.78;2.60;;;;;;;15.49;44.64;100205.81;5029528;28;20531;-67
2022/04/12 10:33:01;;;;;;;5.88;1.80;;;;;;;15.49;41.89;100204.97;5027431;28;20052;-67
2022/04/12 10:36:06;;;;;;;4.28;1.38;;;;;;;15.92;38.90;100205.13;5030217;28;20183;-68
2022/04/12 10:39:13;;;;;;;6.47;2.00;;;;;;;15.90;34.14;100195.63;5029545;28;20102;-67
2022/04/12 10:42:19;;;;;;;3.28;1.40;;;;;;;15.82;34.83;100193.59;5028976;28;20504;-67
2022/04/12 10:45:33;;;;;;;5.30;1.40;;;;;;;16.00;33.08;100181.59;5028844;28;20048;-68
2022/04/12 10:48:39;;;;;;;5.57;1.73;;;;;;;16.23;32.18;100176.25;5027670;28;20044;-67
2022/04/12 10:51:43;;;;;;;3.08;1.30;;;;;;;16.27;33.76;100173.25;5028029;28;20351;-67
2022/04/12 10:54:48;;;;;;;4.63;1.33;;;;;;;16.30;33.46;100177.41;5027790;28;20056;-67
2022/04/12 10:57:53;;;;;;;3.80;1.33;;;;;;;16.65;33.10;100177.16;5028100;28;20040;-68
2022/04/12 11:00:57;;;;;;;4.10;1.15;;;;;;;16.84;32.58;100165.91;5027577;28;20160;-68
2022/04/12 11:04:07;;;;;;;3.95;1.10;;;;;;;16.81;31.24;100174.09;5027315;28;20051;-68
2022/04/12 11:07:27;;;;;;;3.17;1.33;;;;;;;16.97;29.52;100168.34;5026564;28;20060;-67
2022/04/12 11:10:31;;;;;;;3.00;1.15;;;;;;;16.96;30.93;100175.44;5028044;28;20051;-67
2022/04/12 11:13:36;;;;;;;3.47;1.08;;;;;;;17.16;29.33;100170.28;5026753;28;20044;-67
2022/04/12 11:16:49;;;;;;;2.90;1.40;;;;;;;17.19;28.32;100159.44;5024127;28;20500;-68
2022/04/12 11:19:54;;;;;;;5.30;1.25;;;;;;;17.11;28.83;100159.28;5027132;28;20048;-67
2022/04/12 11:22:59;;;;;;;4.43;1.83;;;;;;;17.08;29.06;100156.91;5028033;28;20425;-68
2022/04/12 11:26:37;;;;;;;4.05;1.75;;;;;;;17.24;29.28;100157.25;5017124;28;20115;-67
2022/04/12 11:29:42;;;;;;;5.88;1.83;;;;;;;17.28;29.42;100156.00;5029434;28;20488;-68
2022/04/12 11:32:47;;;;;;;3.47;1.30;;;;;;;17.48;29.36;100153.44;5026586;28;20419;-67
2022/04/12 11:35:51;;;;;;;3.03;1.40;;;;;;;17.59;28.01;100151.56;5027286;28;20048;-68
2022/04/12 11:38:57;;;;;;;3.03;1.23;;;;;;;17.70;28.35;100152.41;5008525;28;20052;-67
2022/04/12 11:42:03;;;;;;;4.18;1.10;;;;;;;17.67;27.52;100153.50;5008468;28;20095;-67
2022/04/12 11:45:07;;;;;;;6.00;1.52;;;;;;;17.81;28.15;100142.59;5027729;28;20075;-68
2022/04/12 11:48:11;;;;;;;4.15;1.38;;;;;;;17.87;27.47;100142.06;5027566;28;20052;-68
2022/04/12 11:51:17;;;;;;;4.60;1.40;;;;;;;17.80;27.94;100138.25;5026300;28;20151;-68
2022/04/12 11:54:35;;;;;;;5.68;1.90;;;;;;;18.07;27.91;100152.66;5030894;28;20423;-67
2022/04/12 11:57:39;;;;;;;4.97;1.50;;;;;;;18.13;28.00;100163.53;5031988;28;20052;-67
2022/04/12 12:00:42;;;;;;;3.40;1.30;;;;;;;18.16;29.04;100151.84;5031960;28;20048;-68
2022/04/12 12:03:45;;;;;;;4.38;1.48;;;;;;;18.25;28.13;100147.50;5031662;28;20053;-67
2022/04/12 12:07:00;;;;;;;3.03;1.25;;;;;;;18.50;27.96;100151.41;5033150;28;20102;-67
2022/04/12 12:10:09;;;;;;;4.78;1.30;;;;;;;18.55;28.24;100143.91;5035598;28;20524;-67
2022/04/12 12:13:13;;;;;;;3.08;1.52;;;;;;;18.80;29.67;100130.09;5035747;28;20129;-68
2022/04/12 12:16:16;;;;;;;4.28;1.55;;;;;;;18.95;28.88;100133.13;5035698;28;20052;-67
2022/04/12 12:19:21;;;;;;;4.80;1.92;;;;;;;18.99;28.07;100136.31;5035459;28;20114;-67
2022/04/12 12:22:36;;;;;;;5.95;1.63;;;;;;;19.25;28.82;100139.16;5034850;28;20564;-68
2022/04/12 12:25:44;;;;;;;3.25;1.20;;;;;;;19.11;29.02;100145.75;5034945;28;20061;-68
2022/04/12 12:28:47;;;;;;;4.10;1.30;;;;;;;19.25;29.25;100139.16;5035511;28;20092;-68
2022/04/12 12:31:58;;;;;;;4.53;1.55;;;;;;;19.17;28.65;100134.56;5022959;28;20099;-67
2022/04/12 12:35:04;;;;;;;3.25;1.33;;;;;;;19.53;29.20;100126.75;5035662;28;20072;-67
2022/04/12 12:38:14;;;;;;;4.85;1.48;;;;;;;19.73;29.08;100131.00;5023359;28;20048;-67
2022/04/12 12:41:29;;;;;;;4.15;1.65;;;;;;;19.72;28.28;100132.00;5035342;28;20048;-68
2022/04/12 12:44:35;;;;;;;4.85;1.50;;;;;;;20.08;28.15;100129.38;5034833;28;20047;-67
2022/04/12 12:47:43;;;;;;;5.55;1.67;;;;;;;20.44;28.15;100121.38;5034841;28;20099;-68
2022/04/12 12:50:46;;;;;;;2.90;1.40;;;;;;;20.64;27.82;100114.94;5034639;28;20047;-67
2022/04/12 12:53:59;;;;;;;8.68;1.77;;;;;;;20.67;28.03;100124.41;5034366;28;20095;-67
2022/04/12 12:57:05;;;;;;;3.33;1.50;;;;;;;20.79;28.00;100111.72;5022685;28;20056;-68
2022/04/12 13:00:10;;;;;;;6.22;1.70;;;;;;;20.81;28.56;100115.06;5034931;28;20080;-68
2022/04/12 13:03:16;;;;;;;4.10;1.52;;;;;;;21.16;28.65;100114.09;5034811;28;20040;-68
2022/04/12 13:06:21;;;;;;;5.68;1.63;;;;;;;21.52;28.90;100116.59;5022609;28;20036;-67
2022/04/12 13:09:25;;;;;;;5.53;1.33;;;;;;;21.72;28.50;100120.66;5034371;28;20072;-68
2022/04/12 13:12:29;;;;;;;4.28;1.50;;;;;;;21.26;27.76;100103.34;5034529;28;20044;-68
2022/04/12 13:15:33;;;;;;;5.47;1.10;;;;;;;21.86;27.95;100105.91;5034778;28;20412;-68
2022/04/12 13:18:37;;;;;;;4.32;1.50;;;;;;;21.91;27.71;100113.38;5034481;28;20108;-68
2022/04/12 13:21:40;;;;;;;3.67;1.50;;;;;;;22.25;27.29;100113.28;5034480;28;20087;-68
2022/04/12 13:24:43;;;;;;;4.95;1.70;;;;;;;23.10;26.58;100112.88;5034592;28;20056;-68
2022/04/12 13:27:48;;;;;;;3.45;1.45;;;;;;;23.81;25.87;100098.56;5034097;28;20135;-68
2022/04/12 13:30:53;;;;;;;4.25;1.45;;;;;;;23.60;25.67;100101.00;5034752;28;20504;-68
2022/04/12 13:33:57;;;;;;;4.25;1.23;;;;;;;24.48;25.77;100105.13;5014373;28;20561;-68
2022/04/12 13:37:02;;;;;;;3.55;1.10;;;;;;;24.62;24.28;100106.16;5029139;28;20048;-68
2022/04/12 13:40:07;;;;;;;7.18;1.73;;;;;;;25.55;23.17;100092.22;5037743;28;20125;-68
2022/04/12 13:43:11;;;;;;;6.97;1.60;;;;;;;26.70;23.35;100085.94;5047522;28;20063;-69
2022/04/12 13:46:15;;;;;;;6.05;1.90;;;;;;;25.64;23.05;100090.28;5054519;28;20044;-69
2022/04/12 13:49:22;;;;;;;3.83;1.42;;;;;;;26.20;22.50;100085.94;5033853;28;20401;-69
2022/04/12 13:52:26;;;;;;;3.33;1.35;;;;;;;28.28;21.75;100078.72;5023004;28;20102;-69
2022/04/12 13:55:30;;;;;;;5.75;1.38;;;;;;;29.14;21.27;100080.50;5029813;28;20310;-70
2022/04/12 13:58:34;;;;;;;4.00;1.30;;;;;;;29.89;19.94;100075.38;5027088;28;20427;-70
2022/04/12 14:01:37;;;;;;;6.10;1.70;;;;;;;31.08;20.09;100068.13;5028598;28;20072;-70
2022/04/12 14:04:41;;;;;;;2.70;1.25;;;;;;;30.09;18.53;100064.47;5028146;28;20048;-70
2022/04/12 14:07:46;;;;;;;5.65;1.55;;;;;;;29.50;19.16;100055.69;5015471;28;20052;-70
2022/04/12 14:10:51;;;;;;;4.15;1.63;;;;;;;30.25;18.47;100055.00;5029829;28;20107;-70
2022/04/12 14:13:55;;;;;;;3.97;1.85;;;;;;;31.16;18.02;100043.50;5021345;28;20076;-70
2022/04/12 14:17:02;;;;;;;3.90;1.33;;;;;;;32.46;16.39;100041.22;5023132;28;20189;-70
2022/04/12 14:20:07;;;;;;;6.07;1.60;;;;;;;33.74;15.51;100034.66;5026792;28;20340;-70
2022/04/12 14:23:11;;;;;;;3.83;1.35;;;;;;;29.92;18.01;100047.97;5025029;28;20041;-70
2022/04/12 14:26:16;;;;;;;3.22;1.42;;;;;;;27.35;22.52;100046.28;5016102;28;20135;-70
2022/04/12 14:29:20;;;;;;;3.15;1.45;;;;;;;31.19;18.02;100047.63;5012703;28;20410;-70
2022/04/12 14:32:25;;;;;;;3.38;1.48;;;;;;;29.89;18.41;100043.84;5011995;28;20520;-70
2022/04/12 14:35:32;;;;;;;3.88;1.50;;;;;;;30.60;20.39;100039.16;5012736;28;20061;-70
2022/04/12 14:38:37;;;;;;;4.30;1.90;;;;;;;28.77;18.93;100039.78;5013380;28;20092;-70